»·PEaware :: N272QL KSAN-KPSP

N272QL :: KSAN-KPSP

FLIGHT INFORMATION

Flight Status: Arrived
Operator: Privately registered:
United States
More flights under this callsign
Pilot: Jacob A. (30091)
Aircraft: MOONEY M-20 201 202 205 220 ATS MSE
(M20P)
More flights by this aircraft type
Origin: KSAN San Diego Intl-Lindbergh
United States
Destination: KPSP Palm Springs Intl
United States
More flights between these airports :: More routes between these airports
Route: DCT
File this flight plan on PilotEdge
Remarks:
Altitude:
(Current/Filed)
9,500ft
Speed:
(Current/Filed)
160kts
Departed: 26-Sep-20 06:15 PM
Arrived: 26-Sep-20 06:49 PM
Distance/Time
Traveled:
74nm/0:34
Distance/Time
To Go:
Arrived

Flight Plot

Page will automatically refresh every two minutes.


Map Options




Map Legend


Flown Route
Filed Route
Departure Airport
Arrival Airport
Navaid (VOR, NDB)
Fix

Horizontal Profiles

Position Reports

Time Latitude Longitude Heading Altitude Ground
Speed
26-Sep-20 18:00 32.733861 -117.178484 54 19ft 0kts
26-Sep-20 18:01 32.733861 -117.178484 54 19ft 0kts
26-Sep-20 18:02 32.733861 -117.178484 54 19ft 0kts
26-Sep-20 18:03 32.733861 -117.178484 54 19ft 0kts
26-Sep-20 18:04 32.733861 -117.178484 54 19ft 0kts
26-Sep-20 18:05 32.733804 -117.178580 54 19ft 2kts
26-Sep-20 18:06 32.733800 -117.179063 261 19ft 0kts
26-Sep-20 18:07 32.733800 -117.179063 261 19ft 0kts
26-Sep-20 18:08 32.733800 -117.179063 261 19ft 0kts
26-Sep-20 18:09 32.733800 -117.179063 261 19ft 0kts
26-Sep-20 18:10 32.733800 -117.179063 261 19ft 0kts
26-Sep-20 18:11 32.733800 -117.179063 261 19ft 0kts
26-Sep-20 18:12 32.732029 -117.178612 104 16ft 14kts
26-Sep-20 18:13 32.731151 -117.175688 129 16ft 0kts
26-Sep-20 18:13 32.731005 -117.175550 152 16ft 0kts
26-Sep-20 18:14 32.730569 -117.177289 285 15ft 46kts
26-Sep-20 18:16 32.722929 -117.197635 136 820ft 123kts
26-Sep-20 18:16 32.705076 -117.169196 127 1657ft 135kts
26-Sep-20 18:17 32.682531 -117.132415 127 2662ft 137kts
26-Sep-20 18:19 32.662051 -117.089359 65 3829ft 126kts
26-Sep-20 18:19 32.678741 -117.061354 52 4668ft 133kts
26-Sep-20 18:20 32.702567 -117.023168 52 5668ft 150kts
26-Sep-20 18:21 32.727922 -116.982664 52 6669ft 153kts
26-Sep-20 18:22 32.754387 -116.943278 44 7667ft 151kts
26-Sep-20 18:23 32.783587 -116.908056 44 8675ft 147kts
26-Sep-20 18:24 32.812639 -116.872979 44 9452ft 159kts
26-Sep-20 18:25 32.846941 -116.831813 44 9497ft 185kts
26-Sep-20 18:26 32.885186 -116.789277 31 9500ft 189kts
26-Sep-20 18:27 32.932256 -116.760613 20 9498ft 191kts
26-Sep-20 18:28 32.982398 -116.740878 13 9499ft 189kts
26-Sep-20 18:29 33.034051 -116.729905 7 9500ft 187kts
26-Sep-20 18:30 33.085534 -116.719506 10 9502ft 188kts
26-Sep-20 18:31 33.136811 -116.706021 11 9501ft 190kts
26-Sep-20 18:32 33.184536 -116.693329 11 9503ft 188kts
26-Sep-20 18:33 33.235942 -116.679597 11 9498ft 189kts
26-Sep-20 18:34 33.287169 -116.665587 14 9500ft 189kts
26-Sep-20 18:35 33.336641 -116.644071 19 9504ft 189kts
26-Sep-20 18:36 33.386084 -116.621586 19 9503ft 190kts
26-Sep-20 18:37 33.435674 -116.598998 19 9496ft 189kts
26-Sep-20 18:38 33.484783 -116.576663 19 9500ft 189kts
26-Sep-20 18:39 33.534613 -116.553800 22 9224ft 195kts
26-Sep-20 18:40 33.584243 -116.524103 25 8716ft 201kts
26-Sep-20 18:41 33.633300 -116.491522 31 8096ft 196kts
26-Sep-20 18:42 33.670711 -116.456489 47 7511ft 147kts
26-Sep-20 18:43 33.698877 -116.423228 19 6736ft 143kts
26-Sep-20 18:44 33.743028 -116.425819 337 4896ft 153kts
26-Sep-20 18:45 33.777352 -116.459388 317 2076ft 157kts
26-Sep-20 18:46 33.805247 -116.479417 90 1036ft 97kts
26-Sep-20 18:47 33.810732 -116.490856 323 721ft 116kts
26-Sep-20 18:48 33.828757 -116.506821 324 434ft 19kts
26-Sep-20 18:49 33.830197 -116.506789 79 436ft 0kts
26-Sep-20 18:50 33.826364 -116.503066 142 419ft 30kts
26-Sep-20 18:51 33.824984 -116.498621 103 407ft 8kts
26-Sep-20 18:52 33.824855 -116.498564 230 406ft 0kts

Navigation Log

Ident Type
Flight plan parsing failed, navigation log unavailable